sensor_id;sensor_type;location;lat;lon;timestamp;temperature;humidity
9941;DHT22;5009;50.656;7.188;2022-12-29T05:00:44;12.10;99.90
9941;DHT22;5009;50.656;7.188;2022-12-29T05:03:10;12.10;99.90
9941;DHT22;5009;50.656;7.188;2022-12-29T05:05:36;12.20;99.90
9941;DHT22;5009;50.656;7.188;2022-12-29T05:08:01;12.10;99.90
9941;DHT22;5009;50.656;7.188;2022-12-29T05:10:27;12.10;99.90
9941;DHT22;5009;50.656;7.188;2022-12-29T05:12:52;12.00;99.90
9941;DHT22;5009;50.656;7.188;2022-12-29T05:15:18;11.90;99.90
9941;DHT22;5009;50.656;7.188;2022-12-29T05:17:44;11.90;99.90
9941;DHT22;5009;50.656;7.188;2022-12-29T05:20:10;11.90;99.90
9941;DHT22;5009;50.656;7.188;2022-12-29T05:22:35;11.80;99.90
9941;DHT22;5009;50.656;7.188;2022-12-29T05:25:01;11.80;99.90
9941;DHT22;5009;50.656;7.188;2022-12-29T05:27:26;11.80;99.90
9941;DHT22;5009;50.656;7.188;2022-12-29T05:29:52;11.70;99.90
9941;DHT22;5009;50.656;7.188;2022-12-29T05:32:17;11.80;99.90
9941;DHT22;5009;50.656;7.188;2022-12-29T05:34:43;11.70;99.90
9941;DHT22;5009;50.656;7.188;2022-12-29T05:37:09;11.70;99.90
9941;DHT22;5009;50.656;7.188;2022-12-29T05:39:34;11.70;99.90
9941;DHT22;5009;50.656;7.188;2022-12-29T05:42:00;11.70;99.90
9941;DHT22;5009;50.656;7.188;2022-12-29T05:44:25;11.70;99.90
9941;DHT22;5009;50.656;7.188;2022-12-29T05:46:51;11.70;99.90
9941;DHT22;5009;50.656;7.188;2022-12-29T05:49:17;11.70;99.90
9941;DHT22;5009;50.656;7.188;2022-12-29T05:51:42;11.70;99.90
9941;DHT22;5009;50.656;7.188;2022-12-29T05:54:08;11.70;99.90
9941;DHT22;5009;50.656;7.188;2022-12-29T05:56:33;11.80;99.90
9941;DHT22;5009;50.656;7.188;2022-12-29T05:58:59;11.70;99.90
9941;DHT22;5009;50.656;7.188;2022-12-29T06:01:25;11.70;99.90
9941;DHT22;5009;50.656;7.188;2022-12-29T06:03:51;11.70;99.90
9941;DHT22;5009;50.656;7.188;2022-12-29T06:06:16;11.80;99.90
9941;DHT22;5009;50.656;7.188;2022-12-29T06:08:42;11.80;99.90
9941;DHT22;5009;50.656;7.188;2022-12-29T06:11:07;11.90;99.90
9941;DHT22;5009;50.656;7.188;2022-12-29T06:13:33;11.90;99.90
9941;DHT22;5009;50.656;7.188;2022-12-29T06:15:58;11.80;99.90
9941;DHT22;5009;50.656;7.188;2022-12-29T06:18:24;11.80;99.90
9941;DHT22;5009;50.656;7.188;2022-12-29T06:20:49;11.90;99.90
9941;DHT22;5009;50.656;7.188;2022-12-29T06:23:15;11.90;99.90
9941;DHT22;5009;50.656;7.188;2022-12-29T06:25:41;12.00;99.90
9941;DHT22;5009;50.656;7.188;2022-12-29T06:28:07;12.00;99.90
9941;DHT22;5009;50.656;7.188;2022-12-29T06:30:33;12.10;99.90
9941;DHT22;5009;50.656;7.188;2022-12-29T06:32:59;12.10;99.90
9941;DHT22;5009;50.656;7.188;2022-12-29T06:35:24;12.00;99.90
9941;DHT22;5009;50.656;7.188;2022-12-29T06:37:50;12.00;99.90
9941;DHT22;5009;50.656;7.188;2022-12-29T06:40:16;12.00;99.90
9941;DHT22;5009;50.656;7.188;2022-12-29T06:42:41;12.10;99.90
9941;DHT22;5009;50.656;7.188;2022-12-29T06:45:07;12.10;99.90
9941;DHT22;5009;50.656;7.188;2022-12-29T06:47:34;12.10;99.90
9941;DHT22;5009;50.656;7.188;2022-12-29T06:50:00;12.10;99.90
9941;DHT22;5009;50.656;7.188;2022-12-29T06:52:26;12.20;99.90
9941;DHT22;5009;50.656;7.188;2022-12-29T06:54:51;12.10;99.90
9941;DHT22;5009;50.656;7.188;2022-12-29T06:57:17;12.00;99.90
9941;DHT22;5009;50.656;7.188;2022-12-29T06:59:42;12.10;99.90
9941;DHT22;5009;50.656;7.188;2022-12-29T07:02:10;12.00;99.90
9941;DHT22;5009;50.656;7.188;2022-12-29T07:04:36;12.00;99.90
9941;DHT22;5009;50.656;7.188;2022-12-29T07:07:02;12.00;99.90
9941;DHT22;5009;50.656;7.188;2022-12-29T07:09:28;12.00;99.90
9941;DHT22;5009;50.656;7.188;2022-12-29T07:11:53;12.00;99.90
9941;DHT22;5009;50.656;7.188;2022-12-29T07:14:19;11.90;99.90
9941;DHT22;5009;50.656;7.188;2022-12-29T07:16:44;11.90;99.90
9941;DHT22;5009;50.656;7.188;2022-12-29T07:19:10;11.80;99.90
9941;DHT22;5009;50.656;7.188;2022-12-29T07:21:35;11.80;99.90
9941;DHT22;5009;50.656;7.188;2022-12-29T07:24:01;11.80;99.90
9941;DHT22;5009;50.656;7.188;2022-12-29T07:26:27;11.70;99.90
9941;DHT22;5009;50.656;7.188;2022-12-29T07:28:53;11.70;99.90
9941;DHT22;5009;50.656;7.188;2022-12-29T07:31:20;11.60;99.90
9941;DHT22;5009;50.656;7.188;2022-12-29T07:33:46;11.60;99.90
9941;DHT22;5009;50.656;7.188;2022-12-29T07:36:13;11.60;99.90
9941;DHT22;5009;50.656;7.188;2022-12-29T07:38:39;11.60;99.90
9941;DHT22;5009;50.656;7.188;2022-12-29T07:41:05;11.60;99.90
9941;DHT22;5009;50.656;7.188;2022-12-29T07:43:30;11.70;99.90
9941;DHT22;5009;50.656;7.188;2022-12-29T07:45:56;11.70;99.90
9941;DHT22;5009;50.656;7.188;2022-12-29T07:48:22;11.70;99.90
9941;DHT22;5009;50.656;7.188;2022-12-29T07:50:48;11.70;99.90
9941;DHT22;5009;50.656;7.188;2022-12-29T07:53:14;11.70;99.90
9941;DHT22;5009;50.656;7.188;2022-12-29T07:55:40;11.70;99.90
9941;DHT22;5009;50.656;7.188;2022-12-29T07:58:06;11.70;99.90
9941;DHT22;5009;50.656;7.188;2022-12-29T08:00:32;11.70;99.90
9941;DHT22;5009;50.656;7.188;2022-12-29T08:02:57;11.70;99.90
9941;DHT22;5009;50.656;7.188;2022-12-29T08:05:23;11.60;99.90
9941;DHT22;5009;50.656;7.188;2022-12-29T08:07:48;11.60;99.90
9941;DHT22;5009;50.656;7.188;2022-12-29T08:10:15;11.70;99.90
9941;DHT22;5009;50.656;7.188;2022-12-29T08:12:41;11.70;99.90
9941;DHT22;5009;50.656;7.188;2022-12-29T08:15:08;11.70;99.90
9941;DHT22;5009;50.656;7.188;2022-12-29T08:17:34;11.70;99.90
9941;DHT22;5009;50.656;7.188;2022-12-29T08:20:00;11.70;99.90
9941;DHT22;5009;50.656;7.188;2022-12-29T08:22:25;11.60;99.90
9941;DHT22;5009;50.656;7.188;2022-12-29T08:24:51;11.60;99.90
9941;DHT22;5009;50.656;7.188;2022-12-29T08:27:17;11.60;99.90
9941;DHT22;5009;50.656;7.188;2022-12-29T08:29:43;11.60;99.90
9941;DHT22;5009;50.656;7.188;2022-12-29T08:32:08;11.60;99.90
9941;DHT22;5009;50.656;7.188;2022-12-29T08:34:34;11.70;99.90
9941;DHT22;5009;50.656;7.188;2022-12-29T08:37:00;11.70;99.90
9941;DHT22;5009;50.656;7.188;2022-12-29T08:39:25;11.80;99.90
9941;DHT22;5009;50.656;7.188;2022-12-29T08:41:51;11.80;99.90
9941;DHT22;5009;50.656;7.188;2022-12-29T08:44:16;11.80;99.90
9941;DHT22;5009;50.656;7.188;2022-12-29T08:46:42;11.70;99.90
9941;DHT22;5009;50.656;7.188;2022-12-29T08:49:07;11.70;99.90
9941;DHT22;5009;50.656;7.188;2022-12-29T08:51:33;11.80;99.90
9941;DHT22;5009;50.656;7.188;2022-12-29T08:53:59;11.80;99.90
9941;DHT22;5009;50.656;7.188;2022-12-29T08:56:24;11.80;99.90
9941;DHT22;5009;50.656;7.188;2022-12-29T08:58:51;11.80;99.90
9941;DHT22;5009;50.656;7.188;2022-12-29T09:01:16;11.80;99.90
9941;DHT22;5009;50.656;7.188;2022-12-29T09:03:42;11.90;99.90
9941;DHT22;5009;50.656;7.188;2022-12-29T09:06:08;11.80;99.90
9941;DHT22;5009;50.656;7.188;2022-12-29T09:08:33;11.80;99.90
9941;DHT22;5009;50.656;7.188;2022-12-29T09:11:13;11.90;99.90
9941;DHT22;5009;50.656;7.188;2022-12-29T09:13:39;11.80;99.90
9941;DHT22;5009;50.656;7.188;2022-12-29T09:16:05;11.70;99.90
9941;DHT22;5009;50.656;7.188;2022-12-29T09:18:31;11.80;99.90
9941;DHT22;5009;50.656;7.188;2022-12-29T09:21:01;11.80;99.90
9941;DHT22;5009;50.656;7.188;2022-12-29T09:23:27;11.90;99.90
9941;DHT22;5009;50.656;7.188;2022-12-29T09:25:53;11.80;99.90
9941;DHT22;5009;50.656;7.188;2022-12-29T09:28:20;11.80;99.90
9941;DHT22;5009;50.656;7.188;2022-12-29T09:30:46;11.80;99.90
9941;DHT22;5009;50.656;7.188;2022-12-29T09:33:11;11.80;99.90
9941;DHT22;5009;50.656;7.188;2022-12-29T09:35:37;11.80;99.90
9941;DHT22;5009;50.656;7.188;2022-12-29T09:38:06;11.80;99.90
9941;DHT22;5009;50.656;7.188;2022-12-29T09:40:32;11.80;99.90
9941;DHT22;5009;50.656;7.188;2022-12-29T09:45:36;11.90;99.90
9941;DHT22;5009;50.656;7.188;2022-12-29T09:48:14;11.80;99.90
9941;DHT22;5009;50.656;7.188;2022-12-29T09:50:46;11.80;99.90
9941;DHT22;5009;50.656;7.188;2022-12-29T09:53:36;11.90;99.90
9941;DHT22;5009;50.656;7.188;2022-12-29T09:56:05;11.80;99.90
9941;DHT22;5009;50.656;7.188;2022-12-29T09:58:49;11.90;99.90
9941;DHT22;5009;50.656;7.188;2022-12-29T10:01:44;11.90;99.90
9941;DHT22;5009;50.656;7.188;2022-12-29T10:04:12;12.00;99.90
9941;DHT22;5009;50.656;7.188;2022-12-29T10:06:57;12.00;99.90
9941;DHT22;5009;50.656;7.188;2022-12-29T10:09:33;12.10;99.90
9941;DHT22;5009;50.656;7.188;2022-12-29T10:20:05;12.40;99.90
9941;DHT22;5009;50.656;7.188;2022-12-29T10:22:53;12.40;99.90
9941;DHT22;5009;50.656;7.188;2022-12-29T10:25:25;12.30;99.90
9941;DHT22;5009;50.656;7.188;2022-12-29T10:27:53;12.30;99.90
9941;DHT22;5009;50.656;7.188;2022-12-29T10:30:20;12.30;99.90
9941;DHT22;5009;50.656;7.188;2022-12-29T10:32:53;12.40;99.90
9941;DHT22;5009;50.656;7.188;2022-12-29T10:35:28;12.40;99.90
9941;DHT22;5009;50.656;7.188;2022-12-29T10:41:10;12.50;99.90
9941;DHT22;5009;50.656;7.188;2022-12-29T10:43:48;12.60;99.90
9941;DHT22;5009;50.656;7.188;2022-12-29T10:46:17;12.70;99.90
9941;DHT22;5009;50.656;7.188;2022-12-29T10:48:44;12.60;99.90
9941;DHT22;5009;50.656;7.188;2022-12-29T10:51:22;12.60;99.90
9941;DHT22;5009;50.656;7.188;2022-12-29T10:59:04;12.60;99.90
9941;DHT22;5009;50.656;7.188;2022-12-29T11:01:37;12.60;99.90
9941;DHT22;5009;50.656;7.188;2022-12-29T11:06:57;12.60;99.90
9941;DHT22;5009;50.656;7.188;2022-12-29T11:09:31;12.70;99.90
9941;DHT22;5009;50.656;7.188;2022-12-29T11:11:57;12.70;99.90
9941;DHT22;5009;50.656;7.188;2022-12-29T11:14:29;12.70;99.90
9941;DHT22;5009;50.656;7.188;2022-12-29T11:17:03;12.70;99.90
9941;DHT22;5009;50.656;7.188;2022-12-29T11:19:32;12.70;99.90
9941;DHT22;5009;50.656;7.188;2022-12-29T11:22:26;12.60;99.60
9941;DHT22;5009;50.656;7.188;2022-12-29T11:24:54;12.70;99.40
9941;DHT22;5009;50.656;7.188;2022-12-29T11:27:23;12.80;99.30
9941;DHT22;5009;50.656;7.188;2022-12-29T11:29:50;12.80;98.50
9941;DHT22;5009;50.656;7.188;2022-12-29T11:32:22;12.90;98.20
9941;DHT22;5009;50.656;7.188;2022-12-29T11:34:48;12.90;97.10
9941;DHT22;5009;50.656;7.188;2022-12-29T11:37:29;12.90;97.20
9941;DHT22;5009;50.656;7.188;2022-12-29T11:40:19;12.80;97.00
9941;DHT22;5009;50.656;7.188;2022-12-29T11:42:55;12.90;97.00
9941;DHT22;5009;50.656;7.188;2022-12-29T11:45:23;12.90;97.30
9941;DHT22;5009;50.656;7.188;2022-12-29T11:48:07;12.90;97.60
9941;DHT22;5009;50.656;7.188;2022-12-29T11:50:37;13.00;97.10
9941;DHT22;5009;50.656;7.188;2022-12-29T11:53:23;12.90;96.90
9941;DHT22;5009;50.656;7.188;2022-12-29T11:55:53;13.00;96.70
9941;DHT22;5009;50.656;7.188;2022-12-29T11:58:27;13.00;96.30
9941;DHT22;5009;50.656;7.188;2022-12-29T12:00:54;13.00;96.10
9941;DHT22;5009;50.656;7.188;2022-12-29T12:03:23;13.00;96.00
9941;DHT22;5009;50.656;7.188;2022-12-29T12:05:59;13.00;96.10
9941;DHT22;5009;50.656;7.188;2022-12-29T12:08:54;13.10;95.80
9941;DHT22;5009;50.656;7.188;2022-12-29T12:11:26;13.00;95.60
9941;DHT22;5009;50.656;7.188;2022-12-29T12:17:12;12.90;95.60
9941;DHT22;5009;50.656;7.188;2022-12-29T12:22:32;12.90;96.00
9941;DHT22;5009;50.656;7.188;2022-12-29T12:27:43;12.70;96.00
9941;DHT22;5009;50.656;7.188;2022-12-29T12:30:22;12.70;96.10
9941;DHT22;5009;50.656;7.188;2022-12-29T12:33:02;12.60;96.30
9941;DHT22;5009;50.656;7.188;2022-12-29T12:43:55;12.70;96.00
9941;DHT22;5009;50.656;7.188;2022-12-29T12:55:37;12.70;95.80
9941;DHT22;5009;50.656;7.188;2022-12-29T13:01:06;12.80;95.30
9941;DHT22;5009;50.656;7.188;2022-12-29T13:04:05;12.70;95.10
9941;DHT22;5009;50.656;7.188;2022-12-29T13:17:33;12.60;96.30
9941;DHT22;5009;50.656;7.188;2022-12-29T13:23:41;12.60;95.90
9941;DHT22;5009;50.656;7.188;2022-12-29T13:26:17;12.60;96.20
9941;DHT22;5009;50.656;7.188;2022-12-29T13:38:51;12.60;95.50
9941;DHT22;5009;50.656;7.188;2022-12-29T13:41:27;12.60;95.90
9941;DHT22;5009;50.656;7.188;2022-12-29T13:43:57;12.60;96.00
9941;DHT22;5009;50.656;7.188;2022-12-29T13:46:41;12.60;96.10
9941;DHT22;5009;50.656;7.188;2022-12-29T13:49:26;12.60;96.00
9941;DHT22;5009;50.656;7.188;2022-12-29T13:52:22;12.50;96.30
9941;DHT22;5009;50.656;7.188;2022-12-29T13:55:07;12.50;96.60
9941;DHT22;5009;50.656;7.188;2022-12-29T14:00:20;12.30;98.70
9941;DHT22;5009;50.656;7.188;2022-12-29T14:07:48;12.30;98.90
9941;DHT22;5009;50.656;7.188;2022-12-29T14:13:14;12.30;97.70
9941;DHT22;5009;50.656;7.188;2022-12-29T14:15:45;12.30;97.50
9941;DHT22;5009;50.656;7.188;2022-12-29T14:18:23;12.40;97.30
9941;DHT22;5009;50.656;7.188;2022-12-29T14:20:51;12.30;95.60
9941;DHT22;5009;50.656;7.188;2022-12-29T14:23:27;12.30;95.80
9941;DHT22;5009;50.656;7.188;2022-12-29T14:28:54;12.30;94.70
9941;DHT22;5009;50.656;7.188;2022-12-29T14:36:40;12.20;94.70
9941;DHT22;5009;50.656;7.188;2022-12-29T14:39:38;12.10;94.30
9941;DHT22;5009;50.656;7.188;2022-12-29T14:47:32;12.00;94.20
9941;DHT22;5009;50.656;7.188;2022-12-29T14:50:23;11.90;94.00
9941;DHT22;5009;50.656;7.188;2022-12-29T14:53:06;11.90;94.30
9941;DHT22;5009;50.656;7.188;2022-12-29T14:55:46;11.80;94.10
9941;DHT22;5009;50.656;7.188;2022-12-29T14:58:35;11.80;93.90
9941;DHT22;5009;50.656;7.188;2022-12-29T15:01:19;11.70;94.40
9941;DHT22;5009;50.656;7.188;2022-12-29T15:03:49;11.60;94.50
9941;DHT22;5009;50.656;7.188;2022-12-29T15:06:16;11.50;94.80
9941;DHT22;5009;50.656;7.188;2022-12-29T15:08:50;11.50;94.90
9941;DHT22;5009;50.656;7.188;2022-12-29T15:11:19;11.40;95.10
9941;DHT22;5009;50.656;7.188;2022-12-29T15:13:46;11.40;95.30
9941;DHT22;5009;50.656;7.188;2022-12-29T15:18:50;11.50;95.10
9941;DHT22;5009;50.656;7.188;2022-12-29T15:21:16;11.50;94.80
9941;DHT22;5009;50.656;7.188;2022-12-29T15:23:44;11.50;95.00
9941;DHT22;5009;50.656;7.188;2022-12-29T15:26:10;11.50;95.00
9941;DHT22;5009;50.656;7.188;2022-12-29T15:28:46;11.50;95.00
9941;DHT22;5009;50.656;7.188;2022-12-29T15:31:20;11.50;95.00
9941;DHT22;5009;50.656;7.188;2022-12-29T15:33:49;11.40;94.80
9941;DHT22;5009;50.656;7.188;2022-12-29T15:36:20;11.40;94.70
9941;DHT22;5009;50.656;7.188;2022-12-29T15:38:47;11.40;94.90
9941;DHT22;5009;50.656;7.188;2022-12-29T15:41:31;11.40;95.00
9941;DHT22;5009;50.656;7.188;2022-12-29T15:44:20;11.30;95.00
9941;DHT22;5009;50.656;7.188;2022-12-29T15:46:49;11.30;95.00
9941;DHT22;5009;50.656;7.188;2022-12-29T15:49:15;11.20;95.10
9941;DHT22;5009;50.656;7.188;2022-12-29T15:51:41;11.10;95.20
9941;DHT22;5009;50.656;7.188;2022-12-29T15:54:19;11.10;95.50
9941;DHT22;5009;50.656;7.188;2022-12-29T15:56:46;11.00;95.60
9941;DHT22;5009;50.656;7.188;2022-12-29T15:59:44;10.90;95.80
9941;DHT22;5009;50.656;7.188;2022-12-29T16:02:10;10.90;95.90
9941;DHT22;5009;50.656;7.188;2022-12-29T16:04:36;10.80;96.10
9941;DHT22;5009;50.656;7.188;2022-12-29T16:07:04;10.70;96.40
9941;DHT22;5009;50.656;7.188;2022-12-29T16:09:35;10.70;96.80
9941;DHT22;5009;50.656;7.188;2022-12-29T16:12:19;10.60;97.00
9941;DHT22;5009;50.656;7.188;2022-12-29T16:14:48;10.60;97.50
9941;DHT22;5009;50.656;7.188;2022-12-29T16:17:18;10.50;98.10
9941;DHT22;5009;50.656;7.188;2022-12-29T16:19:51;10.40;98.20
9941;DHT22;5009;50.656;7.188;2022-12-29T16:22:33;10.50;98.60
9941;DHT22;5009;50.656;7.188;2022-12-29T16:27:49;10.50;98.30
9941;DHT22;5009;50.656;7.188;2022-12-29T16:32:47;10.40;98.00
9941;DHT22;5009;50.656;7.188;2022-12-29T16:35:23;10.40;98.20
9941;DHT22;5009;50.656;7.188;2022-12-29T16:38:15;10.40;98.10
9941;DHT22;5009;50.656;7.188;2022-12-29T16:43:31;10.20;99.50
9941;DHT22;5009;50.656;7.188;2022-12-29T16:51:23;10.10;99.90
9941;DHT22;5009;50.656;7.188;2022-12-29T16:53:53;10.00;99.90
9941;DHT22;5009;50.656;7.188;2022-12-29T16:56:21;10.00;99.90
9941;DHT22;5009;50.656;7.188;2022-12-29T16:59:06;10.00;99.90
9941;DHT22;5009;50.656;7.188;2022-12-29T17:01:38;10.00;99.90
9941;DHT22;5009;50.656;7.188;2022-12-29T17:04:09;9.90;99.90
9941;DHT22;5009;50.656;7.188;2022-12-29T17:06:36;9.90;99.90
9941;DHT22;5009;50.656;7.188;2022-12-29T17:09:02;9.90;99.90
9941;DHT22;5009;50.656;7.188;2022-12-29T17:11:38;9.80;99.90
9941;DHT22;5009;50.656;7.188;2022-12-29T17:19:47;9.70;99.90
9941;DHT22;5009;50.656;7.188;2022-12-29T17:22:20;9.70;99.90
9941;DHT22;5009;50.656;7.188;2022-12-29T17:24:46;9.60;99.90
9941;DHT22;5009;50.656;7.188;2022-12-29T17:29:46;9.60;99.90
9941;DHT22;5009;50.656;7.188;2022-12-29T17:32:13;9.60;99.90
9941;DHT22;5009;50.656;7.188;2022-12-29T17:34:40;9.50;99.90
9941;DHT22;5009;50.656;7.188;2022-12-29T17:39:49;9.40;99.90
9941;DHT22;5009;50.656;7.188;2022-12-29T17:42:15;9.30;99.90
9941;DHT22;5009;50.656;7.188;2022-12-29T17:44:41;9.30;99.90
9941;DHT22;5009;50.656;7.188;2022-12-29T17:47:10;9.40;99.90
9941;DHT22;5009;50.656;7.188;2022-12-29T17:49:36;9.30;99.90
9941;DHT22;5009;50.656;7.188;2022-12-29T17:52:02;9.20;99.90
9941;DHT22;5009;50.656;7.188;2022-12-29T17:54:28;9.20;99.90
9941;DHT22;5009;50.656;7.188;2022-12-29T17:56:54;9.30;99.90
9941;DHT22;5009;50.656;7.188;2022-12-29T17:59:19;9.20;99.90
9941;DHT22;5009;50.656;7.188;2022-12-29T18:01:47;9.20;99.90
9941;DHT22;5009;50.656;7.188;2022-12-29T18:04:17;9.20;99.90
9941;DHT22;5009;50.656;7.188;2022-12-29T18:06:43;9.10;99.90
9941;DHT22;5009;50.656;7.188;2022-12-29T18:09:10;9.10;99.90
9941;DHT22;5009;50.656;7.188;2022-12-29T18:11:39;9.10;99.90
9941;DHT22;5009;50.656;7.188;2022-12-29T18:14:15;9.20;99.90
9941;DHT22;5009;50.656;7.188;2022-12-29T18:16:40;9.20;99.90
9941;DHT22;5009;50.656;7.188;2022-12-29T18:19:06;9.10;99.90
9941;DHT22;5009;50.656;7.188;2022-12-29T18:21:32;9.10;99.90
9941;DHT22;5009;50.656;7.188;2022-12-29T18:23:57;9.10;99.90
9941;DHT22;5009;50.656;7.188;2022-12-29T18:26:25;9.00;99.90
9941;DHT22;5009;50.656;7.188;2022-12-29T18:28:53;9.10;99.90
9941;DHT22;5009;50.656;7.188;2022-12-29T18:31:24;9.00;99.90
9941;DHT22;5009;50.656;7.188;2022-12-29T18:33:50;9.10;99.90
9941;DHT22;5009;50.656;7.188;2022-12-29T18:36:17;9.10;99.90
9941;DHT22;5009;50.656;7.188;2022-12-29T18:38:43;9.10;99.90
9941;DHT22;5009;50.656;7.188;2022-12-29T18:41:15;9.10;99.90
9941;DHT22;5009;50.656;7.188;2022-12-29T18:43:41;9.10;99.90
9941;DHT22;5009;50.656;7.188;2022-12-29T18:46:06;9.10;99.90
9941;DHT22;5009;50.656;7.188;2022-12-29T18:48:32;9.10;99.90
9941;DHT22;5009;50.656;7.188;2022-12-29T18:50:57;9.10;99.90
9941;DHT22;5009;50.656;7.188;2022-12-29T18:53:24;9.10;99.90
9941;DHT22;5009;50.656;7.188;2022-12-29T18:55:51;9.00;99.90
9941;DHT22;5009;50.656;7.188;2022-12-29T18:58:17;9.10;99.90
9941;DHT22;5009;50.656;7.188;2022-12-29T19:00:43;9.10;99.90
9941;DHT22;5009;50.656;7.188;2022-12-29T19:03:14;9.10;99.90
9941;DHT22;5009;50.656;7.188;2022-12-29T19:05:42;9.20;99.90
9941;DHT22;5009;50.656;7.188;2022-12-29T19:08:08;9.20;99.90
9941;DHT22;5009;50.656;7.188;2022-12-29T19:10:34;9.20;99.90
9941;DHT22;5009;50.656;7.188;2022-12-29T19:13:00;9.20;99.90
9941;DHT22;5009;50.656;7.188;2022-12-29T19:15:27;9.30;99.90
9941;DHT22;5009;50.656;7.188;2022-12-29T19:17:54;9.30;99.90
9941;DHT22;5009;50.656;7.188;2022-12-29T19:20:33;9.30;99.90
9941;DHT22;5009;50.656;7.188;2022-12-29T19:23:02;9.40;99.90
9941;DHT22;5009;50.656;7.188;2022-12-29T19:25:28;9.50;99.90
9941;DHT22;5009;50.656;7.188;2022-12-29T19:27:54;9.50;99.90
9941;DHT22;5009;50.656;7.188;2022-12-29T19:30:20;9.50;99.90
9941;DHT22;5009;50.656;7.188;2022-12-29T19:32:50;9.50;99.90
9941;DHT22;5009;50.656;7.188;2022-12-29T19:35:18;9.50;99.90
9941;DHT22;5009;50.656;7.188;2022-12-29T19:37:44;9.60;99.90
9941;DHT22;5009;50.656;7.188;2022-12-29T19:40:13;9.60;99.90
9941;DHT22;5009;50.656;7.188;2022-12-29T19:42:39;9.60;99.90
9941;DHT22;5009;50.656;7.188;2022-12-29T19:45:05;9.60;99.90
9941;DHT22;5009;50.656;7.188;2022-12-29T19:47:32;9.60;99.90
9941;DHT22;5009;50.656;7.188;2022-12-29T19:49:58;9.60;99.90
9941;DHT22;5009;50.656;7.188;2022-12-29T19:52:25;9.60;99.90
9941;DHT22;5009;50.656;7.188;2022-12-29T19:54:51;9.60;99.90
9941;DHT22;5009;50.656;7.188;2022-12-29T19:57:17;9.60;99.90
9941;DHT22;5009;50.656;7.188;2022-12-29T19:59:43;9.60;99.90
9941;DHT22;5009;50.656;7.188;2022-12-29T20:02:27;9.60;99.90
9941;DHT22;5009;50.656;7.188;2022-12-29T20:04:53;9.60;99.90
9941;DHT22;5009;50.656;7.188;2022-12-29T20:07:20;9.50;99.90
9941;DHT22;5009;50.656;7.188;2022-12-29T20:09:46;9.50;99.90
9941;DHT22;5009;50.656;7.188;2022-12-29T20:12:12;9.50;99.90
9941;DHT22;5009;50.656;7.188;2022-12-29T20:14:39;9.50;99.90
9941;DHT22;5009;50.656;7.188;2022-12-29T20:17:05;9.40;99.90
9941;DHT22;5009;50.656;7.188;2022-12-29T20:19:33;9.40;99.90
9941;DHT22;5009;50.656;7.188;2022-12-29T20:21:59;9.50;99.90
9941;DHT22;5009;50.656;7.188;2022-12-29T20:24:25;9.50;99.90
9941;DHT22;5009;50.656;7.188;2022-12-29T20:26:50;9.40;99.90
9941;DHT22;5009;50.656;7.188;2022-12-29T20:29:18;9.50;99.90
9941;DHT22;5009;50.656;7.188;2022-12-29T20:31:44;9.40;99.90
9941;DHT22;5009;50.656;7.188;2022-12-29T20:34:10;9.30;99.90
9941;DHT22;5009;50.656;7.188;2022-12-29T20:36:39;9.30;99.90
9941;DHT22;5009;50.656;7.188;2022-12-29T20:39:10;9.20;99.90
9941;DHT22;5009;50.656;7.188;2022-12-29T20:41:36;9.20;99.90
9941;DHT22;5009;50.656;7.188;2022-12-29T20:44:02;9.20;99.90
9941;DHT22;5009;50.656;7.188;2022-12-29T20:46:30;9.20;99.90
9941;DHT22;5009;50.656;7.188;2022-12-29T20:48:55;9.20;99.90
9941;DHT22;5009;50.656;7.188;2022-12-29T20:51:21;9.20;99.90
9941;DHT22;5009;50.656;7.188;2022-12-29T20:53:47;9.20;99.90
9941;DHT22;5009;50.656;7.188;2022-12-29T20:56:15;9.20;99.90
9941;DHT22;5009;50.656;7.188;2022-12-29T20:58:40;9.20;99.90
9941;DHT22;5009;50.656;7.188;2022-12-29T21:01:09;9.10;99.90
9941;DHT22;5009;50.656;7.188;2022-12-29T21:03:35;9.00;99.90
9941;DHT22;5009;50.656;7.188;2022-12-29T21:06:01;9.00;99.90
9941;DHT22;5009;50.656;7.188;2022-12-29T21:08:27;8.90;99.90
9941;DHT22;5009;50.656;7.188;2022-12-29T21:10:55;8.90;99.90
9941;DHT22;5009;50.656;7.188;2022-12-29T21:13:22;8.80;99.90
9941;DHT22;5009;50.656;7.188;2022-12-29T21:15:53;8.70;99.90
9941;DHT22;5009;50.656;7.188;2022-12-29T21:18:19;8.70;99.90
9941;DHT22;5009;50.656;7.188;2022-12-29T21:20:54;8.60;99.90
9941;DHT22;5009;50.656;7.188;2022-12-29T21:23:19;8.60;99.90
9941;DHT22;5009;50.656;7.188;2022-12-29T21:25:45;8.50;99.90
9941;DHT22;5009;50.656;7.188;2022-12-29T21:28:10;8.40;99.90
9941;DHT22;5009;50.656;7.188;2022-12-29T21:30:37;8.30;99.90
9941;DHT22;5009;50.656;7.188;2022-12-29T21:33:03;8.10;99.90
9941;DHT22;5009;50.656;7.188;2022-12-29T21:35:29;8.10;99.90
9941;DHT22;5009;50.656;7.188;2022-12-29T21:37:55;8.10;99.90
9941;DHT22;5009;50.656;7.188;2022-12-29T21:40:21;8.10;99.90
9941;DHT22;5009;50.656;7.188;2022-12-29T21:42:49;8.10;99.90
9941;DHT22;5009;50.656;7.188;2022-12-29T21:45:15;8.00;99.90
9941;DHT22;5009;50.656;7.188;2022-12-29T21:48:07;8.00;99.90
9941;DHT22;5009;50.656;7.188;2022-12-29T21:50:53;7.90;99.90
9941;DHT22;5009;50.656;7.188;2022-12-29T21:53:40;7.90;99.90
9941;DHT22;5009;50.656;7.188;2022-12-29T21:58:33;7.90;99.90
